Terminal Aerodrome Forecast
Issued by NWS Knoxville/Tri Cities, TN

Home | Current Version | Previous Version | Text Only | Print | Product List | Glossary On
Versions: 1 2 3 4 5 6 7 8 9 10 11 12 13 14 15 16 17 18
000
FTUS44 KMRX 172201 AAB
TAFCHA
TAF AMD
KCHA 172201Z 1722/1818 19010KT P6SM VCSH FEW028 OVC040
      TEMPO 1722/1802 5SM -RA BR OVC028
     FM180300 23006KT 4SM -SHRA BR BKN009
     FM180900 32004KT 4SM BR OVC005
     FM181300 01005KT P6SM OVC050=

USA.gov is the U.S. government's official web portal to all federal, state and local government web resources and services.